Latest Coastal Weather Observations for Shark Bay Airport

IDW60701

Issued at 6:02 am WST Thursday 11 February 2016 (issued every 10 minutes, with the page automatically refreshed every 10 minutes)

About coastal observations | Map of coastal stations | Coastal observations for WA | Marine services | Other Formats
Station Details ID: 006105 Name: SHARK BAY AIRPORT Lat: -25.89 Lon: 113.58 Height: 33.8 m
Data from the previous 72 hours. | See also: Recent months at Shark Bay Airport
Date/Time
WST
Temp

°C
Wind Pressure Rain
since 9am
mm
Weather Cloud Vis
km
Sea
Height
m
Swell
Dir
 
Speed
knots
Gust
knots
hPa Trend Height
m
Period
s
Dir
11/06:00am 23.6 S 11 15 1009.3 - - - - - - - - -
11/05:30am 23.6 S 13 17 1009.0 - - - - - - - - -
11/05:00am 23.5 S 13 17 1008.8 - - - - - - - - -
11/04:30am 23.4 S 11 15 1008.8 - - - - - - - - -
11/04:00am 23.6 S 10 14 1008.9 - - - - - - - - -
11/03:30am 23.4 SSW 10 14 1008.6 - - - - - - - - -
11/03:00am 23.4 SSW 10 14 1008.5 - 0.0 - - - - - - -
11/02:30am 23.5 S 10 14 1008.6 - - - - - - - - -
11/02:00am 23.7 S 9 13 1008.8 - - - - - - - - -
11/01:30am 23.9 S 10 15 1008.9 - - - - - - - - -
11/01:00am 24.0 SSW 11 16 1008.8 - - - - - - - - -
11/12:30am 24.1 S 13 19 1008.8 - - - - - - - - -
11/12:00am 24.3 SSW 14 21 1008.9 - - - - - - - - -
 
Date/Time
WST
Temp

°C
Wind Pressure Rain
since 9am
mm
Weather Cloud Vis
km
Sea
Height
m
Swell
Dir
 
Speed
knots
Gust
knots
hPa Trend Height
m
Period
s
Dir
10/11:30pm 24.3 SSW 14 20 1009.4 - - - - - - - - -
10/11:00pm 24.5 SSW 13 17 1009.8 - - - - - - - - -
10/10:30pm 24.5 S 12 17 1010.0 - - - - - - - - -
10/10:00pm 24.5 S 12 17 1009.9 - - - - - - - - -
10/09:30pm 24.8 S 16 21 1009.8 - - - - - - - - -
10/09:00pm 25.0 S 16 21 1009.8 - 0.0 - - - - - - -
10/08:30pm 25.1 S 13 18 1009.7 - - - - - - - - -
10/08:00pm 25.6 S 10 15 1009.4 - - - - - - - - -
10/07:30pm 26.7 S 12 18 1009.0 - - - - - - - - -
10/07:00pm 28.0 SSW 15 20 1008.6 - - - - - - - - -
10/06:30pm 29.4 SSW 15 21 1008.3 - - - - - - - - -
10/06:00pm 31.0 SSW 16 21 1008.2 - - - - - - - - -
10/05:30pm 33.2 SSW 17 22 1008.0 - - - - - - - - -
10/05:00pm 33.8 SSW 17 23 1008.0 - - - - - - - - -
10/04:30pm 35.0 SSW 16 23 1008.1 - - - - - - - - -
10/04:00pm 35.0 SSW 16 22 1008.1 - - - - - - - - -
10/03:30pm 35.0 SW 16 22 1008.1 - - - - - - - - -
10/03:00pm 34.4 SW 14 20 1008.2 - - - - - - - - -
10/02:30pm 36.0 SW 15 19 1008.5 - 0.0 - - - - - - -
10/02:00pm 36.9 SW 15 18 1008.7 - 0.0 - - - - - - -
10/01:30pm 37.2 SW 14 19 1008.9 - 0.0 - - - - - - -
10/01:00pm 36.9 SW 15 19 1009.2 - 0.0 - - - - - - -
10/12:30pm 36.4 SW 15 20 1009.4 - 0.0 - - - - - - -
10/12:00pm 34.7 SW 14 19 1009.7 - 0.0 - - - - - - -
10/11:30am 35.7 SSW 14 20 1010.0 - 0.0 - - - - - - -
10/11:00am 33.5 SW 14 18 1010.3 - 0.0 - - - - - - -
10/10:30am 35.0 S 9 13 1010.5 - 0.0 - - - - - - -
10/10:00am 34.0 S 9 14 1010.7 - 0.0 - - - - - - -
10/09:30am 31.9 S 11 15 1010.8 - 0.0 - - - - - - -
10/09:00am 31.0 S 11 15 1010.9 - 0.0 - - - - - - -
10/08:30am 29.6 S 12 18 1011.0 - 0.0 - - - - - - -
10/08:00am 28.9 S 11 15 1010.9 - 0.0 - - - - - - -
10/07:30am 27.1 S 12 19 1010.7 - 0.0 - - - - - - -
10/07:00am 25.4 S 11 15 1010.6 - 0.0 - - - - - - -
10/06:30am 24.3 S 9 13 1010.5 - 0.0 - - - - - - -
10/06:00am 24.2 S 10 13 1010.3 - 0.0 - - - - - - -
10/05:30am 24.3 S 10 13 1009.9 - 0.0 - - - - - - -
10/05:00am 24.6 SSW 10 13 1009.7 - 0.0 - - - - - - -
10/04:30am 24.8 SSW 9 11 1009.8 - 0.0 - - - - - - -
10/04:00am 25.0 S 9 13 1009.7 - 0.0 - - - - - - -
10/03:30am 25.3 SSW 7 10 1009.8 - 0.0 - - - - - - -
10/03:00am 26.2 S 9 14 1009.7 - 0.0 - - - - - - -
10/02:30am 26.6 S 11 15 1009.6 - 0.0 - - - - - - -
10/02:00am 26.6 S 12 17 1009.9 - 0.0 - - - - - - -
10/01:30am 27.3 S 10 15 1010.2 - 0.0 - - - - - - -
10/01:00am 27.6 S 11 15 1010.2 - 0.0 - - - - - - -
10/12:30am 27.8 SSE 10 14 1010.5 - 0.0 - - - - - - -
10/12:00am 28.1 S 11 16 1010.5 - 0.0 - - - - - - -
 
Date/Time
WST
Temp

°C
Wind Pressure Rain
since 9am
mm
Weather Cloud Vis
km
Sea
Height
m
Swell
Dir
 
Speed
knots
Gust
knots
hPa Trend Height
m
Period
s
Dir
09/11:30pm 27.9 S 14 20 1010.5 - 0.0 - - - - - - -
09/11:00pm 28.3 S 16 22 1010.6 - 0.0 - - - - - - -
09/10:30pm 28.9 SSE 17 24 1010.4 - 0.0 - - - - - - -
09/10:00pm 29.4 SSE 17 25 1010.5 - 0.0 - - - - - - -
09/09:30pm 29.6 S 17 24 1010.5 - 0.0 - - - - - - -
09/09:00pm 28.6 S 14 20 1010.2 - 0.0 - - - - - - -
09/08:30pm 28.7 S 15 22 1010.0 - 0.0 - - - - - - -
09/08:00pm 28.8 S 17 24 1009.8 - 0.0 - - - - - - -
09/07:39pm 28.7 S 17 27 1009.6 - 0.0 - - - - - - -
09/07:30pm 28.8 S 17 24 1009.5 - 0.0 - - - - - - -
09/07:05pm 29.1 S 17 27 1009.4 - 0.0 - - - - - - -
09/07:00pm 29.9 S 18 27 1009.4 - 0.0 - - - - - - -
09/06:30pm 31.2 S 15 24 1009.0 - 0.0 - - - - - - -
09/06:00pm 33.6 S 18 25 1008.8 - 0.0 - - - - - - -
09/05:30pm 34.7 SSW 18 24 1008.5 - 0.0 - - - - - - -
09/05:00pm 36.5 SSW 20 27 1008.5 - 0.0 - - - - - - -
09/04:30pm 37.5 SSW 18 24 1008.5 - 0.0 - - - - - - -
09/04:00pm 37.4 SSW 16 23 1008.3 - 0.0 - - - - - - -
09/03:30pm 39.3 SW 16 23 1008.5 - 0.0 - - - - - - -
09/03:00pm 40.6 SW 14 19 1008.7 - 0.0 - - - - - - -
09/02:30pm 40.7 SW 13 18 1009.1 - 0.0 - - - - - - -
09/02:00pm 41.9 SW 13 17 1009.3 - 0.0 - - - - - - -
09/01:30pm 41.0 SW 13 16 1009.6 - 0.0 - - - - - - -
09/01:00pm 40.9 SW 13 17 1009.7 - 0.0 - - - - - - -
09/12:30pm 42.3 SW 10 14 1010.0 - 0.0 - - - - - - -
09/12:00pm 44.3 NE 9 13 1010.3 - 0.0 - - - - - - -
09/11:30am 42.7 NE 7 12 1010.6 - 0.0 - - - - - - -
09/11:00am 42.2 ENE 6 11 1011.0 - 0.0 - - - - - - -
09/10:30am 41.1 ENE 6 11 1011.1 - 0.0 - - - - - - -
09/10:00am 39.8 ESE 8 11 1011.3 - 0.0 - - - - - - -
09/09:30am 38.7 E 7 9 1011.4 - 0.0 - - - - - - -
09/09:00am 36.4 ESE 7 11 1011.4 - 0.0 - - - - - - -
09/08:30am 34.4 SE 8 11 1011.3 - 0.0 - - - - - - -
09/08:00am 31.9 SSE 8 10 1011.1 - 0.0 - - - - - - -
09/07:30am 29.0 S 8 11 1010.9 - 0.0 - - - - - - -
09/07:00am 26.8 SSE 8 11 1010.7 - 0.0 - - - - - - -
09/06:30am 24.7 S 7 9 1010.4 - 0.0 - - - - - - -
09/06:00am 24.6 SSE 9 11 1010.1 - 0.0 - - - - - - -
09/05:30am 24.1 S 7 9 1009.8 - 0.0 - - - - - - -
09/05:00am 24.7 S 8 10 1009.6 - 0.0 - - - - - - -
09/04:30am 25.2 S 9 11 1009.4 - 0.0 - - - - - - -
09/04:00am 26.2 S 9 13 1009.2 - 0.0 - - - - - - -
09/03:30am 26.5 S 9 12 1009.2 - 0.0 - - - - - - -
09/03:00am 26.1 S 8 11 1009.2 - 0.0 - - - - - - -
09/02:30am 26.2 S 9 12 1009.3 - 0.0 - - - - - - -
09/02:00am 25.3 S 8 11 1009.5 - 0.0 - - - - - - -
09/01:30am 24.9 S 9 11 1009.7 - 0.0 - - - - - - -
09/01:00am 25.1 S 8 12 1010.1 - 0.0 - - - - - - -
09/12:30am 24.9 SSW 9 11 1010.3 - 0.0 - - - - - - -
09/12:00am 24.6 SW 7 9 1010.5 - 0.0 - - - - - - -
 
Date/Time
WST
Temp

°C
Wind Pressure Rain
since 9am
mm
Weather Cloud Vis
km
Sea
Height
m
Swell
Dir
 
Speed
knots
Gust
knots
hPa Trend Height
m
Period
s
Dir
08/11:30pm 25.2 SSW 6 7 1010.8 - 0.0 - - - - - - -
08/11:00pm 25.5 SSW 7 9 1010.9 - 0.0 - - - - - - -
08/10:30pm 26.3 SSW 9 13 1010.9 - 0.0 - - - - - - -
08/10:00pm 26.4 SSW 10 13 1011.1 - 0.0 - - - - - - -
08/09:30pm 26.7 S 11 15 1010.8 - 0.0 - - - - - - -
08/09:00pm 27.5 S 15 19 1010.6 - 0.0 - - - - - - -
08/08:30pm 27.3 S 11 15 1010.2 - 0.0 - - - - - - -
08/08:00pm 28.1 S 10 15 1009.8 - 0.0 - - - - - - -
08/07:30pm 29.2 SSW 15 20 1009.4 - 0.0 - - - - - - -
08/07:00pm 30.9 SSW 14 19 1009.0 - 0.0 - - - - - - -
08/06:30pm 32.4 S 15 23 1008.7 - 0.0 - - - - - - -
08/06:00pm 33.8 SSW 14 19 1008.3 - 0.0 - - - - - - -
08/05:30pm 33.9 SW 13 18 1008.1 - 0.0 - - - - - - -
08/05:00pm 35.3 SSW 16 20 1007.9 - 0.0 - - - - - - -
08/04:30pm 36.4 SW 15 20 1007.8 - 0.0 - - - - - - -
08/04:00pm 39.3 SW 13 17 1007.7 - 0.0 - - - - - - -
08/03:30pm 42.4 SW 15 19 1007.8 - 0.0 - - - - - - -
08/03:00pm 43.4 SW 13 18 1008.1 - 0.0 - - - - - - -
08/02:30pm 43.4 SW 13 17 1008.2 - 0.0 - - - - - - -
08/02:00pm 43.9 SW 9 14 1008.6 - 0.0 - - - - - - -
08/01:30pm 44.6 WNW 5 11 1008.8 - 0.0 - - - - - - -
08/01:00pm 45.5 NNE 7 12 1009.1 - 0.0 - - - - - - -
08/12:30pm 44.9 NE 8 13 1009.4 - 0.0 - - - - - - -
08/12:00pm 44.0 NE 10 16 1009.5 - 0.0 - - - - - - -
08/11:30am 43.4 ENE 10 15 1010.0 - 0.0 - - - - - - -
08/11:00am 41.8 ENE 10 15 1010.3 - 0.0 - - - - - - -
08/10:30am 41.3 ENE 12 17 1010.4 - 0.0 - - - - - - -
08/10:00am 39.3 ENE 11 14 1010.5 - 0.0 - - - - - - -
08/09:30am 38.1 ENE 10 14 1010.7 - 0.0 - - - - - - -
08/09:00am 36.5 ENE 9 13 1010.7 - - - - - - - - -
08/08:30am 34.5 ESE 6 13 1010.6 - - - - - - - - -
08/08:00am 31.9 ESE 5 6 1010.7 - - - - - - - - -
08/07:30am 28.0 S 4 6 1010.4 - - - - - - - - -
08/07:00am 25.0 SSE 5 7 1010.1 - - - - - - - - -
08/06:30am 23.0 S 5 6 1009.8 - - - - - - - - -

Other Formats:

Comma delimited format used in spreadsheet applications
http://www.bom.gov.au/fwo/IDW60701/IDW60701.95402.axf

JavaScript Object Notation format (JSON) in row-major order
http://www.bom.gov.au/fwo/IDW60701/IDW60701.95402.json